Time;durP1;ratioP1;P1;durP2;ratioP2;P2;SDS_P1;SDS_P2;PMS_P1;PMS_P2;Temp;Humidity;BMP_temperature;BMP_pressure;BME280_temperature;BME280_humidity;BME280_pressure;Samples;Min_cycle;Max_cycle;Signal;HPM_P1;HPM_P2
2022/04/24 00:01:11;;;;;;;12.00;9.00;;;;;;;10.14;84.41;98608.08;109569;1274;22477;-61
2022/04/24 00:03:39;;;;;;;14.50;10.20;;;;;;;10.13;84.40;98609.98;109372;1274;22513;-61
2022/04/24 00:06:07;;;;;;;11.20;9.30;;;;;;;10.11;84.69;98616.73;109545;1274;22705;-61
2022/04/24 00:08:39;;;;;;;11.90;9.20;;;;;;;10.09;84.78;98610.28;109487;1274;23392;-61
2022/04/24 00:11:07;;;;;;;11.80;9.80;;;;;;;10.09;85.04;98609.09;109555;1274;22399;-61
2022/04/24 00:13:41;;;;;;;14.80;10.30;;;;;;;10.08;85.20;98604.74;109585;1274;23248;-61
2022/04/24 00:16:10;;;;;;;17.60;11.00;;;;;;;10.09;85.27;98606.27;107734;1274;24072;-60
2022/04/24 00:18:46;;;;;;;14.00;11.30;;;;;;;10.08;85.36;98602.77;105155;1275;23050;-60
2022/04/24 00:21:14;;;;;;;12.50;11.20;;;;;;;10.07;85.47;98602.84;105164;1275;24131;-60
2022/04/24 00:23:43;;;;;;;16.20;12.00;;;;;;;10.06;85.65;98609.36;105150;1274;22542;-60
2022/04/24 00:26:14;;;;;;;15.20;12.10;;;;;;;10.06;85.70;98605.50;109484;1274;23286;-61
2022/04/24 00:28:44;;;;;;;15.80;12.00;;;;;;;10.06;85.79;98604.36;109530;1274;22381;-61
2022/04/24 00:31:12;;;;;;;15.30;12.50;;;;;;;10.05;86.06;98603.55;109582;1274;23192;-61
2022/04/24 00:33:40;;;;;;;17.00;13.70;;;;;;;10.06;86.19;98599.90;109483;1274;22496;-61
2022/04/24 00:36:13;;;;;;;16.40;13.00;;;;;;;10.06;86.11;98594.29;109555;1274;22472;-61
2022/04/24 00:38:40;;;;;;;16.10;12.20;;;;;;;10.05;86.25;98590.31;109526;1274;22397;-61
2022/04/24 00:41:08;;;;;;;18.70;12.00;;;;;;;10.05;86.37;98588.03;109574;1274;22443;-62
2022/04/24 00:43:41;;;;;;;17.60;12.10;;;;;;;10.06;86.46;98588.85;109507;1274;22229;-61
2022/04/24 00:46:51;;;;;;;15.90;11.70;;;;;;;10.04;86.60;98595.16;109358;1274;23240;-65
2022/04/24 00:49:19;;;;;;;14.80;11.60;;;;;;;10.02;86.48;98603.94;109389;1274;22488;-65
2022/04/24 00:51:56;;;;;;;15.00;11.50;;;;;;;10.01;86.72;98607.20;109475;1274;23153;-65
2022/04/24 00:54:24;;;;;;;16.00;11.60;;;;;;;10.01;86.89;98600.39;109514;1274;22400;-65
2022/04/24 00:57:13;;;;;;;13.20;11.60;;;;;;;10.00;86.82;98603.61;109485;1276;23532;-65
2022/04/24 00:59:45;;;;;;;15.50;10.50;;;;;;;10.00;87.02;98606.00;109552;1274;22393;-65
2022/04/24 01:02:14;;;;;;;14.20;11.40;;;;;;;9.98;87.21;98608.83;109570;1274;22406;-65
2022/04/24 01:04:42;;;;;;;13.30;10.20;;;;;;;9.98;87.20;98599.73;109529;1274;22508;-65
2022/04/24 01:07:13;;;;;;;10.40;9.20;;;;;;;9.97;87.21;98600.66;109540;1274;22686;-65
2022/04/24 01:09:56;;;;;;;10.50;8.30;;;;;;;9.94;87.29;98598.20;109524;1274;23261;-65
2022/04/24 01:12:26;;;;;;;11.20;8.10;;;;;;;9.92;87.17;98598.69;109493;1274;23204;-65
2022/04/24 01:14:55;;;;;;;11.40;8.30;;;;;;;9.91;87.12;98598.58;109489;1274;23325;-65
2022/04/24 01:17:22;;;;;;;10.80;8.30;;;;;;;9.89;87.25;98595.75;105509;1274;25459;-60
2022/04/24 01:19:55;;;;;;;11.00;7.90;;;;;;;9.89;87.26;98594.93;108915;1274;24000;-61
2022/04/24 01:22:23;;;;;;;9.60;8.00;;;;;;;9.89;87.34;98597.16;105129;1274;24922;-60
2022/04/24 01:24:51;;;;;;;8.50;7.30;;;;;;;9.87;87.29;98598.75;105232;1275;24038;-60
2022/04/24 01:27:19;;;;;;;9.00;7.30;;;;;;;9.85;87.24;98599.29;109375;1277;23673;-61
2022/04/24 01:29:51;;;;;;;8.60;7.40;;;;;;;9.84;87.26;98598.69;109421;1274;22224;-61
2022/04/24 01:32:19;;;;;;;9.30;7.80;;;;;;;9.82;87.13;98595.98;109550;1274;22483;-61
2022/04/24 01:34:47;;;;;;;8.60;7.70;;;;;;;9.80;87.21;98598.11;109438;1274;22448;-61
2022/04/24 01:37:16;;;;;;;11.90;8.30;;;;;;;9.79;87.22;98595.23;109398;1276;23707;-61
2022/04/24 01:39:44;;;;;;;10.00;8.10;;;;;;;9.78;87.19;98596.98;109473;1274;22394;-61
2022/04/24 01:42:14;;;;;;;10.00;8.20;;;;;;;9.77;87.21;98595.24;109564;1273;22464;-61
2022/04/24 01:44:42;;;;;;;10.50;8.10;;;;;;;9.76;87.16;98599.60;109521;1274;23138;-61
2022/04/24 01:47:16;;;;;;;10.40;8.50;;;;;;;9.76;87.21;98597.09;109594;1274;23100;-61
2022/04/24 01:49:44;;;;;;;12.10;8.90;;;;;;;9.75;87.13;98596.92;109539;1274;22501;-61
2022/04/24 01:52:12;;;;;;;13.00;8.50;;;;;;;9.74;87.10;98597.02;109539;1274;22436;-61
2022/04/24 01:54:41;;;;;;;14.00;9.70;;;;;;;9.75;87.33;98601.55;109452;1275;22529;-61
2022/04/24 01:57:10;;;;;;;11.60;8.60;;;;;;;9.74;87.33;98602.85;109485;1274;22455;-61
2022/04/24 01:59:41;;;;;;;10.70;9.40;;;;;;;9.74;87.21;98607.70;109515;1274;22412;-61
2022/04/24 02:02:11;;;;;;;13.50;9.80;;;;;;;9.73;87.29;98600.95;109363;1276;22433;-61
2022/04/24 02:04:40;;;;;;;11.40;9.50;;;;;;;9.71;87.35;98603.95;109499;1274;22492;-61
2022/04/24 02:07:08;;;;;;;13.30;9.10;;;;;;;9.71;87.41;98607.59;109359;1275;22432;-61
2022/04/24 02:09:41;;;;;;;13.30;9.30;;;;;;;9.71;87.38;98605.14;109404;1276;22432;-61
2022/04/24 02:12:09;;;;;;;13.00;9.80;;;;;;;9.68;87.55;98606.27;109541;1274;22402;-61
2022/04/24 02:14:47;;;;;;;14.30;10.00;;;;;;;9.67;87.64;98610.63;109520;1274;22396;-61
2022/04/24 02:17:20;;;;;;;11.40;8.90;;;;;;;9.67;87.75;98612.27;109556;1274;23316;-61
2022/04/24 02:19:48;;;;;;;14.90;10.60;;;;;;;9.68;87.71;98614.27;109512;1274;22404;-61
2022/04/24 02:22:16;;;;;;;12.10;10.00;;;;;;;9.68;87.75;98615.64;109519;1274;22542;-61
2022/04/24 02:24:44;;;;;;;13.00;10.20;;;;;;;9.69;88.04;98618.90;109447;1277;22239;-61
2022/04/24 02:27:12;;;;;;;15.00;10.20;;;;;;;9.70;87.98;98619.45;105848;1274;25995;-60
2022/04/24 02:29:43;;;;;;;17.10;10.50;;;;;;;9.70;88.02;98624.29;105212;1275;24011;-60
2022/04/24 02:32:13;;;;;;;15.20;10.40;;;;;;;9.70;88.06;98620.04;109434;1274;23357;-61
2022/04/24 02:34:41;;;;;;;13.60;10.10;;;;;;;9.69;88.07;98620.80;109513;1274;22525;-61
2022/04/24 02:37:13;;;;;;;14.60;10.40;;;;;;;9.69;87.96;98629.17;109499;1276;23525;-61
2022/04/24 02:39:41;;;;;;;15.40;10.10;;;;;;;9.69;88.12;98628.27;109468;1276;23492;-61
2022/04/24 02:42:09;;;;;;;15.20;10.90;;;;;;;9.70;88.06;98627.39;109506;1274;22505;-61
2022/04/24 02:44:40;;;;;;;18.20;10.70;;;;;;;9.71;88.13;98629.02;109504;1274;22426;-61
2022/04/24 02:47:08;;;;;;;16.50;11.00;;;;;;;9.71;88.09;98629.62;109569;1274;23188;-61
2022/04/24 02:49:37;;;;;;;16.60;11.40;;;;;;;9.71;88.32;98636.14;109495;1274;22394;-61
2022/04/24 02:52:06;;;;;;;19.20;12.50;;;;;;;9.71;88.08;98639.79;109570;1274;23230;-61
2022/04/24 02:54:35;;;;;;;17.50;11.70;;;;;;;9.70;88.07;98648.11;109465;1275;22399;-61
2022/04/24 02:57:05;;;;;;;15.70;11.90;;;;;;;9.68;88.12;98651.98;109461;1276;22424;-61
2022/04/24 02:59:34;;;;;;;21.30;13.10;;;;;;;9.69;88.13;98655.02;109513;1274;22385;-61
2022/04/24 03:02:03;;;;;;;23.60;13.00;;;;;;;9.68;88.21;98663.17;109579;1274;22426;-61
2022/04/24 03:04:33;;;;;;;21.20;13.70;;;;;;;9.64;88.00;98665.11;109523;1274;22383;-61
2022/04/24 03:07:05;;;;;;;18.60;12.50;;;;;;;9.62;88.13;98666.36;109530;1274;22446;-61
2022/04/24 03:09:34;;;;;;;19.60;14.10;;;;;;;9.62;88.20;98673.75;109452;1274;22250;-61
2022/04/24 03:12:03;;;;;;;18.20;12.90;;;;;;;9.63;88.25;98674.23;109538;1274;22437;-61
2022/04/24 03:14:31;;;;;;;18.50;12.60;;;;;;;9.63;88.27;98673.86;109538;1274;22410;-61
2022/04/24 03:17:01;;;;;;;20.00;12.20;;;;;;;9.62;88.34;98674.08;109484;1274;23491;-61
2022/04/24 03:19:30;;;;;;;22.20;13.30;;;;;;;9.61;88.27;98677.73;109526;1274;22440;-61
2022/04/24 03:21:58;;;;;;;19.90;13.80;;;;;;;9.58;88.24;98684.24;109564;1274;22422;-62
2022/04/24 03:24:30;;;;;;;19.50;13.30;;;;;;;9.57;88.41;98687.29;109481;1275;22393;-61
2022/04/24 03:27:00;;;;;;;18.70;12.70;;;;;;;9.58;88.51;98693.16;106219;1274;24323;-61
2022/04/24 03:29:29;;;;;;;18.90;12.50;;;;;;;9.59;88.52;98695.93;109468;1274;23346;-61
2022/04/24 03:31:57;;;;;;;20.80;12.70;;;;;;;9.60;88.64;98698.50;109516;1274;23212;-61
2022/04/24 03:34:31;;;;;;;20.70;13.30;;;;;;;9.60;88.57;98701.70;109528;1274;23178;-61
2022/04/24 03:37:01;;;;;;;21.20;12.60;;;;;;;9.60;88.74;98707.90;109489;1274;22461;-61
2022/04/24 03:39:29;;;;;;;21.10;13.60;;;;;;;9.59;88.60;98710.35;109496;1274;22552;-61
2022/04/24 03:42:00;;;;;;;20.00;12.20;;;;;;;9.60;88.58;98715.19;109441;1276;22313;-61
2022/04/24 03:44:32;;;;;;;17.10;11.70;;;;;;;9.58;88.77;98717.04;109555;1274;22403;-61
2022/04/24 03:47:00;;;;;;;18.80;11.30;;;;;;;9.55;88.73;98714.70;109575;1274;22396;-61
2022/04/24 03:49:28;;;;;;;16.50;11.70;;;;;;;9.53;88.71;98714.63;109554;1274;22455;-61
2022/04/24 03:51:57;;;;;;;17.50;11.30;;;;;;;9.52;88.73;98716.86;109581;1274;22416;-61
2022/04/24 03:54:25;;;;;;;16.60;10.80;;;;;;;9.51;88.88;98718.02;109538;1274;23306;-61
2022/04/24 03:56:56;;;;;;;21.50;11.50;;;;;;;9.52;88.97;98719.65;109505;1276;23076;-61
2022/04/24 03:59:24;;;;;;;15.40;10.70;;;;;;;9.53;88.97;98722.30;109393;1276;22450;-61
2022/04/24 04:01:52;;;;;;;17.00;10.90;;;;;;;9.54;88.94;98725.41;109491;1274;22395;-61
2022/04/24 04:04:20;;;;;;;15.30;10.50;;;;;;;9.55;89.08;98724.38;109568;1274;22383;-61
2022/04/24 04:06:48;;;;;;;17.20;11.50;;;;;;;9.55;89.07;98726.00;109561;1274;22689;-60
2022/04/24 04:09:16;;;;;;;15.30;11.10;;;;;;;9.57;89.04;98733.23;109499;1274;22461;-60
2022/04/24 04:11:44;;;;;;;19.80;12.00;;;;;;;9.56;88.90;98739.05;109479;1274;22270;-61
2022/04/24 04:14:21;;;;;;;16.10;10.70;;;;;;;9.54;88.90;98734.44;109566;1274;22524;-61
2022/04/24 04:16:51;;;;;;;14.70;10.40;;;;;;;9.54;88.94;98742.59;109518;1274;22427;-61
2022/04/24 04:19:19;;;;;;;17.00;11.40;;;;;;;9.52;88.87;98741.67;109553;1274;22432;-61
2022/04/24 04:21:47;;;;;;;13.60;9.40;;;;;;;9.49;88.64;98744.19;109473;1274;22430;-61
2022/04/24 04:24:17;;;;;;;14.50;9.20;;;;;;;9.50;88.47;98747.23;109478;1276;22456;-61
2022/04/24 04:26:45;;;;;;;11.20;9.60;;;;;;;9.49;88.30;98754.19;109514;1274;22377;-62
2022/04/24 04:29:13;;;;;;;11.70;8.90;;;;;;;9.47;87.98;98752.01;109573;1274;23202;-61
2022/04/24 04:31:41;;;;;;;11.60;8.60;;;;;;;9.46;87.98;98761.25;109495;1274;23222;-61
2022/04/24 04:34:09;;;;;;;9.40;7.90;;;;;;;9.46;87.81;98759.17;109546;1274;22467;-61
2022/04/24 04:36:37;;;;;;;9.10;7.60;;;;;;;9.45;87.63;98761.02;109465;1274;22415;-65
2022/04/24 04:39:06;;;;;;;11.00;8.20;;;;;;;9.44;87.45;98761.19;109526;1274;22423;-64
2022/04/24 04:41:38;;;;;;;11.70;8.10;;;;;;;9.45;87.23;98761.52;109526;1274;22246;-65
2022/04/24 04:44:07;;;;;;;8.60;6.50;;;;;;;9.46;87.14;98767.23;109578;1274;23143;-65
2022/04/24 04:46:35;;;;;;;7.30;6.40;;;;;;;9.47;87.19;98769.30;109524;1274;22627;-65
2022/04/24 04:49:04;;;;;;;7.80;6.40;;;;;;;9.48;86.71;98776.20;109547;1274;22481;-65
2022/04/24 04:51:33;;;;;;;10.20;6.90;;;;;;;9.47;86.53;98778.82;109468;1274;23209;-65
2022/04/24 04:54:01;;;;;;;9.90;6.40;;;;;;;9.48;85.98;98787.08;109532;1274;22491;-64
2022/04/24 04:56:29;;;;;;;8.60;6.20;;;;;;;9.48;85.70;98782.46;109516;1274;23157;-65
2022/04/24 04:59:00;;;;;;;10.80;7.20;;;;;;;9.51;85.46;98783.93;109571;1274;23039;-65
2022/04/24 05:01:28;;;;;;;8.80;5.60;;;;;;;9.61;85.68;98784.98;109528;1272;23190;-65
2022/04/24 05:04:00;;;;;;;7.10;5.10;;;;;;;9.81;85.73;98786.26;109750;1271;22502;-65
2022/04/24 05:06:32;;;;;;;8.60;5.00;;;;;;;10.11;85.44;98789.76;109728;1271;22382;-61
2022/04/24 05:09:00;;;;;;;6.10;5.40;;;;;;;10.48;84.42;98792.35;109722;1271;23352;-61
2022/04/24 05:11:31;;;;;;;8.50;5.20;;;;;;;10.85;83.01;98790.95;109721;1270;23450;-61
2022/04/24 05:14:00;;;;;;;8.50;4.80;;;;;;;11.19;81.68;98792.50;109751;1271;22481;-62
2022/04/24 05:16:38;;;;;;;5.30;4.20;;;;;;;11.54;80.05;98792.81;109726;1271;23047;-61
2022/04/24 05:19:08;;;;;;;5.60;4.70;;;;;;;11.87;79.09;98792.42;109763;1271;22521;-61
2022/04/24 05:21:42;;;;;;;6.20;4.60;;;;;;;12.28;77.36;98794.86;109701;1271;22417;-61
2022/04/24 05:24:11;;;;;;;5.00;4.30;;;;;;;12.56;74.82;98794.81;109622;1272;22495;-61
2022/04/24 05:26:40;;;;;;;5.00;4.10;;;;;;;12.74;73.38;98794.24;109731;1271;22441;-61
2022/04/24 05:29:08;;;;;;;4.80;3.90;;;;;;;12.92;72.04;98793.11;109768;1271;22505;-61
2022/04/24 05:31:37;;;;;;;5.80;4.60;;;;;;;13.06;70.95;98791.64;109775;1270;22400;-62
2022/04/24 05:34:07;;;;;;;5.10;4.50;;;;;;;13.26;70.63;98793.55;109717;1271;22557;-61
2022/04/24 05:36:35;;;;;;;8.10;5.50;;;;;;;13.51;70.06;98792.25;109742;1271;22448;-62
2022/04/24 05:39:03;;;;;;;7.80;6.60;;;;;;;13.74;69.12;98788.40;109696;1271;22477;-62
2022/04/24 05:41:33;;;;;;;6.20;4.80;;;;;;;13.90;68.04;98789.85;109672;1272;22402;-61
2022/04/24 05:44:01;;;;;;;5.10;4.60;;;;;;;13.97;67.26;98792.71;109632;1272;23205;-61
2022/04/24 05:46:30;;;;;;;6.80;4.70;;;;;;;14.00;66.72;98796.65;109641;1274;22975;-61
2022/04/24 05:49:00;;;;;;;6.60;5.50;;;;;;;14.01;66.74;98798.43;109725;1271;22904;-60
2022/04/24 05:51:29;;;;;;;6.40;5.00;;;;;;;13.98;66.20;98796.26;109721;1270;22494;-61
2022/04/24 05:53:57;;;;;;;6.70;5.70;;;;;;;13.87;65.95;98803.55;109731;1270;22551;-61
2022/04/24 05:56:29;;;;;;;5.80;5.20;;;;;;;13.72;65.77;98805.41;109763;1271;22399;-61
2022/04/24 05:58:57;;;;;;;6.30;5.60;;;;;;;13.61;65.61;98808.62;109729;1271;22515;-61
2022/04/24 06:01:25;;;;;;;7.50;6.20;;;;;;;13.50;65.72;98812.39;109772;1271;22388;-61
2022/04/24 06:03:57;;;;;;;9.80;8.00;;;;;;;13.38;64.70;98816.65;109714;1271;22392;-60
2022/04/24 06:06:37;;;;;;;8.70;7.30;;;;;;;13.27;64.96;98815.48;109719;1271;23126;-61
2022/04/24 06:09:06;;;;;;;7.60;6.80;;;;;;;13.18;64.62;98821.11;109582;1272;23269;-61
2022/04/24 06:11:41;;;;;;;8.50;7.60;;;;;;;13.12;64.36;98819.58;109702;1271;22493;-61
2022/04/24 06:14:15;;;;;;;8.40;7.20;;;;;;;12.90;63.24;98817.52;109718;1271;22446;-61
2022/04/24 06:16:45;;;;;;;8.50;7.60;;;;;;;12.64;63.84;98818.77;109790;1270;23093;-61
2022/04/24 06:19:13;;;;;;;8.40;7.20;;;;;;;12.49;64.77;98816.15;109650;1274;22498;-60
2022/04/24 06:21:42;;;;;;;10.90;7.10;;;;;;;12.39;65.31;98816.14;109741;1271;22423;-60
2022/04/24 06:24:18;;;;;;;8.30;7.10;;;;;;;12.34;65.33;98819.23;109763;1271;22330;-61
2022/04/24 06:26:46;;;;;;;9.60;7.90;;;;;;;12.30;65.43;98821.01;109744;1271;22451;-60
2022/04/24 06:29:15;;;;;;;10.00;7.60;;;;;;;12.26;65.68;98819.84;109734;1271;22590;-61
2022/04/24 06:31:46;;;;;;;8.60;7.70;;;;;;;12.26;66.32;98824.98;109755;1270;22236;-60
2022/04/24 06:34:17;;;;;;;8.80;8.00;;;;;;;12.30;66.16;98823.08;109733;1269;22537;-61
2022/04/24 06:36:45;;;;;;;9.20;7.90;;;;;;;12.34;65.97;98829.40;109733;1270;22510;-60
2022/04/24 06:39:15;;;;;;;11.10;7.20;;;;;;;12.37;65.43;98831.11;109670;1272;22654;-60
2022/04/24 06:41:45;;;;;;;8.50;7.30;;;;;;;12.38;64.28;98830.19;109748;1271;23085;-60
2022/04/24 06:44:24;;;;;;;10.70;7.50;;;;;;;12.37;63.98;98830.19;109687;1270;23198;-60
2022/04/24 06:46:52;;;;;;;9.60;7.10;;;;;;;12.39;63.86;98831.16;109788;1269;22463;-59
2022/04/24 06:49:20;;;;;;;10.80;7.90;;;;;;;12.41;63.48;98827.97;109630;1272;22505;-59
2022/04/24 06:51:48;;;;;;;10.40;7.80;;;;;;;12.42;63.18;98837.63;109679;1272;23216;-59
2022/04/24 06:54:16;;;;;;;8.70;7.50;;;;;;;12.41;62.40;98836.16;109715;1271;22492;-59
2022/04/24 06:56:48;;;;;;;8.40;7.50;;;;;;;12.36;62.50;98837.56;109778;1271;22469;-60
2022/04/24 06:59:16;;;;;;;8.60;7.70;;;;;;;12.35;62.49;98841.35;109721;1271;22462;-60
2022/04/24 07:01:44;;;;;;;13.20;7.90;;;;;;;12.35;62.31;98840.63;109770;1271;23285;-59
2022/04/24 07:04:18;;;;;;;10.30;8.20;;;;;;;12.33;61.96;98837.98;109739;1271;22450;-59
2022/04/24 07:06:46;;;;;;;9.30;8.30;;;;;;;12.28;61.56;98835.17;109713;1271;22371;-60
2022/04/24 07:09:14;;;;;;;12.70;8.10;;;;;;;12.25;61.60;98837.12;109762;1271;23222;-59
2022/04/24 07:11:43;;;;;;;9.90;8.40;;;;;;;12.27;60.61;98834.19;109629;1272;22442;-60
2022/04/24 07:14:13;;;;;;;12.50;8.50;;;;;;;12.31;60.59;98831.81;109741;1271;23221;-59
2022/04/24 07:16:41;;;;;;;10.80;8.20;;;;;;;12.38;60.89;98832.09;109770;1270;22437;-64
2022/04/24 07:19:10;;;;;;;11.80;8.20;;;;;;;12.50;60.68;98835.48;109763;1271;22444;-63
2022/04/24 07:21:38;;;;;;;7.90;6.80;;;;;;;12.61;60.36;98834.66;109706;1271;23185;-64
2022/04/24 07:24:06;;;;;;;9.60;7.60;;;;;;;12.73;58.96;98837.01;109719;1269;22422;-63
2022/04/24 07:26:37;;;;;;;8.70;7.10;;;;;;;12.83;57.81;98837.02;109751;1271;22426;-64
2022/04/24 07:29:07;;;;;;;10.40;7.10;;;;;;;12.90;57.18;98844.27;109733;1272;22414;-64
2022/04/24 07:31:35;;;;;;;8.30;6.70;;;;;;;12.98;56.79;98845.05;109770;1271;22493;-64
2022/04/24 07:34:05;;;;;;;8.90;7.10;;;;;;;13.04;55.87;98843.13;109732;1271;22729;-64
2022/04/24 07:36:35;;;;;;;7.10;5.70;;;;;;;13.09;56.33;98844.67;109737;1270;22489;-64
2022/04/24 07:39:05;;;;;;;8.50;6.40;;;;;;;13.18;55.80;98850.22;109719;1272;22458;-63
2022/04/24 07:41:37;;;;;;;8.80;7.40;;;;;;;13.22;55.38;98851.94;109726;1271;23484;-64
2022/04/24 07:44:07;;;;;;;8.30;6.80;;;;;;;13.25;55.47;98853.00;109687;1271;22454;-64
2022/04/24 07:46:38;;;;;;;7.40;5.60;;;;;;;13.27;54.56;98856.17;109764;1271;22428;-60
2022/04/24 07:49:08;;;;;;;6.40;5.20;;;;;;;13.26;53.70;98854.85;109778;1271;23199;-60
2022/04/24 07:51:36;;;;;;;4.40;3.70;;;;;;;13.25;53.65;98858.56;109752;1270;22551;-59
2022/04/24 07:54:08;;;;;;;4.90;4.40;;;;;;;13.28;52.72;98857.53;109727;1271;22482;-59
2022/04/24 07:56:36;;;;;;;4.50;4.00;;;;;;;13.29;52.25;98858.02;109697;1271;22526;-59
2022/04/24 07:59:04;;;;;;;4.50;3.70;;;;;;;13.26;50.97;98854.55;109703;1271;22544;-60
2022/04/24 08:01:33;;;;;;;4.50;3.00;;;;;;;13.23;50.60;98853.46;109730;1271;23267;-60
2022/04/24 08:04:06;;;;;;;4.10;3.60;;;;;;;13.19;49.86;98856.83;109676;1272;22646;-59
2022/04/24 08:06:34;;;;;;;5.90;5.10;;;;;;;13.14;49.97;98853.79;109736;1271;22550;-59
2022/04/24 08:09:05;;;;;;;3.50;3.10;;;;;;;13.09;50.26;98855.06;109699;1271;22473;-59
2022/04/24 08:11:36;;;;;;;4.30;3.40;;;;;;;13.05;49.34;98847.81;109706;1271;22393;-60
2022/04/24 08:14:05;;;;;;;4.40;3.50;;;;;;;13.00;49.19;98847.15;109564;1272;22536;-60
2022/04/24 08:16:33;;;;;;;3.90;3.40;;;;;;;12.97;48.05;98851.53;107205;1271;26396;-59
2022/04/24 08:19:01;;;;;;;4.70;3.50;;;;;;;12.95;48.92;98849.91;105386;1274;23966;-59
2022/04/24 08:21:30;;;;;;;4.50;3.80;;;;;;;12.95;49.24;98853.95;109608;1271;23358;-61
2022/04/24 08:23:58;;;;;;;4.50;3.60;;;;;;;12.97;50.32;98854.86;109725;1271;22415;-60
2022/04/24 08:26:26;;;;;;;5.00;4.00;;;;;;;13.02;50.51;98854.90;109629;1272;23081;-60
2022/04/24 08:28:54;;;;;;;5.80;4.20;;;;;;;13.07;50.22;98851.41;109736;1271;22430;-60
2022/04/24 08:31:24;;;;;;;4.30;3.40;;;;;;;13.10;49.31;98849.90;109708;1271;22459;-60
2022/04/24 08:33:57;;;;;;;4.70;3.80;;;;;;;13.13;50.07;98854.90;109789;1270;22470;-60
2022/04/24 08:36:26;;;;;;;4.80;3.80;;;;;;;13.17;50.71;98854.88;109754;1271;23201;-60
2022/04/24 08:38:56;;;;;;;4.30;3.90;;;;;;;13.24;50.72;98855.69;109752;1270;22427;-60
2022/04/24 08:41:24;;;;;;;4.80;4.00;;;;;;;13.29;51.32;98856.98;109716;1271;23128;-60
2022/04/24 08:43:53;;;;;;;4.40;3.80;;;;;;;13.34;51.21;98856.33;109789;1271;22442;-60
2022/04/24 08:46:23;;;;;;;4.80;3.80;;;;;;;13.41;51.27;98858.65;109686;1271;23409;-61
2022/04/24 08:48:52;;;;;;;4.30;3.60;;;;;;;13.48;51.07;98856.59;109741;1271;22486;-61
2022/04/24 08:51:21;;;;;;;4.10;3.60;;;;;;;13.54;50.76;98856.70;109649;1271;23200;-62
2022/04/24 08:53:49;;;;;;;4.00;3.50;;;;;;;13.58;50.90;98850.71;109773;1271;22615;-61
2022/04/24 08:56:17;;;;;;;5.50;4.30;;;;;;;13.62;50.59;98856.52;109704;1271;22503;-61
2022/04/24 08:58:47;;;;;;;3.80;3.40;;;;;;;13.65;50.92;98855.27;109723;1270;22463;-61
2022/04/24 09:01:17;;;;;;;4.20;3.50;;;;;;;13.69;50.30;98851.67;109699;1274;22221;-61
2022/04/24 09:03:47;;;;;;;4.20;3.70;;;;;;;13.70;49.81;98855.52;109740;1271;22531;-62
2022/04/24 09:06:22;;;;;;;5.50;3.60;;;;;;;13.72;50.91;98852.70;109740;1270;22434;-60
2022/04/24 09:08:50;;;;;;;4.40;3.80;;;;;;;13.75;50.16;98854.36;109724;1271;22474;-60
2022/04/24 09:11:29;;;;;;;4.60;3.50;;;;;;;13.77;49.27;98854.99;109740;1271;22613;-61
2022/04/24 09:14:17;;;;;;;5.40;3.70;;;;;;;13.76;49.43;98851.27;109666;1273;22368;-60
2022/04/24 09:16:48;;;;;;;4.90;3.80;;;;;;;13.79;49.57;98857.60;109727;1274;23264;-60
2022/04/24 09:19:23;;;;;;;5.20;4.10;;;;;;;13.80;49.19;98854.14;109718;1273;22480;-60
2022/04/24 09:21:54;;;;;;;9.20;3.60;;;;;;;13.82;48.90;98861.08;109700;1272;22401;-60
2022/04/24 09:24:27;;;;;;;4.70;3.20;;;;;;;13.84;48.40;98864.44;109649;1271;22480;-61
2022/04/24 09:27:11;;;;;;;3.30;3.00;;;;;;;13.88;48.06;98863.98;109693;1272;23288;-60
2022/04/24 09:29:40;;;;;;;4.00;3.20;;;;;;;13.87;47.88;98861.70;109603;1271;22532;-60
2022/04/24 09:32:11;;;;;;;3.50;3.20;;;;;;;13.86;48.29;98866.24;109759;1271;22403;-60
2022/04/24 09:34:42;;;;;;;5.80;3.60;;;;;;;13.85;48.92;98865.96;109768;1271;22401;-60
2022/04/24 09:37:10;;;;;;;5.60;4.30;;;;;;;13.87;49.48;98870.19;109704;1273;22280;-60
2022/04/24 09:39:41;;;;;;;5.10;4.10;;;;;;;13.90;49.71;98869.05;109725;1270;22383;-60
2022/04/24 09:42:13;;;;;;;4.80;3.80;;;;;;;13.91;50.00;98870.13;109710;1271;22447;-60
2022/04/24 09:44:49;;;;;;;5.70;4.40;;;;;;;13.94;50.40;98868.89;109739;1271;22393;-60
2022/04/24 09:47:41;;;;;;;;;;;;;;;13.98;50.64;98876.95;109753;1271;22465;-60
2022/04/24 09:50:12;;;;;;;3.70;3.20;;;;;;;14.00;50.19;98876.84;109756;1271;22436;-60
2022/04/24 09:52:44;;;;;;;4.50;3.90;;;;;;;14.01;50.12;98872.38;109578;1270;22416;-60
2022/04/24 09:55:17;;;;;;;4.80;4.10;;;;;;;14.03;49.97;98878.50;109745;1271;22359;-60
2022/04/24 09:57:46;;;;;;;5.50;4.30;;;;;;;14.04;50.09;98880.41;109714;1271;22404;-60
2022/04/24 10:00:18;;;;;;;5.30;4.30;;;;;;;14.06;50.52;98882.23;109679;1271;22515;-60
2022/04/24 10:02:55;;;;;;;6.20;4.40;;;;;;;14.11;50.83;98875.77;109695;1271;22412;-60
2022/04/24 10:05:28;;;;;;;6.70;5.40;;;;;;;14.13;49.80;98884.73;109788;1271;22533;-60
2022/04/24 10:07:59;;;;;;;6.10;5.40;;;;;;;14.15;49.63;98886.80;109701;1272;22319;-60
2022/04/24 10:10:27;;;;;;;6.30;5.30;;;;;;;14.15;50.32;98883.29;109731;1271;23240;-60
2022/04/24 10:13:10;;;;;;;5.80;4.10;;;;;;;14.18;50.07;98882.61;109724;1271;22401;-60
2022/04/24 10:15:48;;;;;;;5.70;3.90;;;;;;;14.20;49.77;98878.20;109716;1271;22464;-60
2022/04/24 10:18:35;;;;;;;4.00;3.30;;;;;;;14.22;49.74;98878.55;109686;1273;22416;-60
2022/04/24 10:21:09;;;;;;;;;;;;;;;14.25;49.79;98881.98;109631;1274;23097;-60
2022/04/24 10:23:41;;;;;;;4.40;3.60;;;;;;;14.28;50.07;98888.45;109710;1271;23466;-60
2022/04/24 10:26:20;;;;;;;5.70;4.20;;;;;;;14.30;49.95;98879.56;109752;1271;22651;-60
2022/04/24 10:28:48;;;;;;;5.10;4.20;;;;;;;14.32;49.38;98882.27;109748;1270;22568;-60
2022/04/24 10:31:20;;;;;;;5.20;4.20;;;;;;;14.32;50.08;98883.26;109680;1272;23167;-60
2022/04/24 10:33:51;;;;;;;5.00;4.00;;;;;;;14.37;50.63;98883.92;109743;1271;22365;-60
2022/04/24 10:36:20;;;;;;;6.90;4.50;;;;;;;14.43;49.50;98885.42;109769;1271;22314;-60
2022/04/24 10:38:49;;;;;;;6.30;4.00;;;;;;;14.46;50.26;98882.14;109717;1272;22397;-60
2022/04/24 10:41:36;;;;;;;9.50;5.50;;;;;;;14.51;50.69;98890.79;109721;1271;22434;-60
2022/04/24 10:44:09;;;;;;;9.90;7.00;;;;;;;14.56;50.11;98890.34;109550;1269;266913;-60
2022/04/24 10:48:34;;;;;;;4.50;3.80;;;;;;;14.61;49.56;98888.92;102080;1310;545484;-59
2022/04/24 10:51:02;;;;;;;4.50;4.10;;;;;;;14.63;50.05;98893.11;104369;1284;23991;-59
2022/04/24 10:54:00;;;;;;;4.60;4.10;;;;;;;14.67;49.91;98889.42;104284;1284;23974;-60
2022/04/24 10:56:31;;;;;;;6.30;4.70;;;;;;;14.73;50.72;98884.27;104492;1284;24014;-60
2022/04/24 10:59:10;;;;;;;5.80;4.70;;;;;;;14.79;50.64;98887.02;104555;1284;25183;-60
2022/04/24 11:01:44;;;;;;;5.00;4.50;;;;;;;14.88;50.22;98883.63;108573;1283;167643;-60
2022/04/24 11:04:17;;;;;;;6.00;5.10;;;;;;;14.93;50.18;98878.92;108829;1282;22434;-61
2022/04/24 11:06:55;;;;;;;5.30;4.30;;;;;;;14.98;49.67;98883.69;108843;1281;22436;-61
2022/04/24 11:09:35;;;;;;;7.50;4.20;;;;;;;15.02;49.66;98888.41;108927;1280;22424;-61
2022/04/24 11:12:08;;;;;;;7.20;5.50;;;;;;;15.07;49.35;98881.85;108973;1281;23143;-60
2022/04/24 11:14:41;;;;;;;5.10;4.40;;;;;;;15.11;49.68;98877.95;108748;1282;22430;-60
2022/04/24 11:17:11;;;;;;;5.60;4.00;;;;;;;15.15;49.72;98879.27;108912;1281;22441;-60
2022/04/24 11:19:42;;;;;;;6.80;3.90;;;;;;;15.21;49.64;98881.42;108854;1282;22417;-61
2022/04/24 11:22:11;;;;;;;4.10;3.60;;;;;;;15.28;49.96;98877.99;108869;1282;22430;-61
2022/04/24 11:24:43;;;;;;;4.30;3.60;;;;;;;15.36;49.30;98880.85;108896;1282;22242;-60
2022/04/24 11:27:12;;;;;;;4.60;4.10;;;;;;;15.40;48.30;98881.83;109780;1270;22404;-61
2022/04/24 11:29:43;;;;;;;5.00;4.00;;;;;;;15.42;48.18;98881.02;109757;1271;22419;-61
2022/04/24 11:32:13;;;;;;;5.30;4.10;;;;;;;15.45;47.85;98882.31;109786;1270;22486;-61
2022/04/24 11:34:43;;;;;;;4.90;4.10;;;;;;;15.48;47.88;98879.77;109793;1270;23227;-60
2022/04/24 11:37:11;;;;;;;5.10;4.20;;;;;;;15.53;48.67;98874.97;109795;1271;23141;-61
2022/04/24 11:39:41;;;;;;;4.80;4.30;;;;;;;15.59;49.16;98873.27;109713;1271;22403;-61